This is the latest recevied weather packets stored in our database for station/object DB5ZQ. If no packets are shown the sender has not sent any weather packets the latest 1 day(s).
| Time | Temp. | Humidity | Pressure | Rain* | Wind** | Luminosity | Snow |
|---|---|---|---|---|---|---|---|
| 1778089470 | 15.56° C | 76% | 1002.5 hPa | 0 mm | - | - | - |
| 1778089170 | 15.56° C | 76% | 1002.5 hPa | 0 mm | - | - | - |
| 1778088269 | 16.11° C | 76% | 1002.4 hPa | 0.25 mm | - | - | - |
| 1778087068 | 16.11° C | 76% | 1002.1 hPa | 0.51 mm | - | - | - |
| 1778085266 | 16.67° C | 76% | 1002 hPa | 1.27 mm | - | - | - |
| 1778084966 | 16.67° C | 76% | 1002.1 hPa | 1.27 mm | - | - | - |
| 1778084065 | 16.67° C | 76% | 1002 hPa | 1.02 mm | - | - | - |
| 1778083765 | 17.22° C | 76% | 1002 hPa | 1.02 mm | - | - | - |
| 1778083164 | 17.22° C | 75% | 1002 hPa | 0.51 mm | - | - | - |
| 1778082864 | 17.22° C | 75% | 1002 hPa | 0.51 mm | - | - | - |
| 1778081963 | 17.22° C | 74% | 1002.1 hPa | 0 mm | - | - | - |
| 1778081663 | 17.78° C | 73% | 1002 hPa | 0 mm | - | - | - |
| 1778081062 | 18.33° C | 71% | 1002 hPa | 0 mm | - | - | - |
| 1778080762 | 17.78° C | 70% | 1001.9 hPa | 0 mm | - | - | - |
| 1778079561 | 17.78° C | 68% | 1001.7 hPa | 0 mm | - | - | - |
| 1778078660 | 18.33° C | 66% | 1001.7 hPa | 0 mm | - | - | - |
| 1778077759 | 18.89° C | 63% | 1001.5 hPa | 0 mm | - | - | - |
| 1778077459 | 18.89° C | 61% | 1001.5 hPa | 0 mm | - | - | - |
| 1778076558 | 19.44° C | 60% | 1001.4 hPa | 0 mm | - | - | - |
| 1778075357 | 20° C | 56% | 1001.3 hPa | 0 mm | - | - | - |
| 1778074456 | 20.56° C | 52% | 1001.3 hPa | 0 mm | - | - | - |
| 1778073255 | 21.11° C | 52% | 1001.3 hPa | 0 mm | - | - | - |
| 1778072354 | 20° C | 56% | 1001.3 hPa | 0 mm | - | - | - |
| 1778071153 | 20° C | 57% | 1001.4 hPa | 0 mm | - | - | - |
| 1778070252 | 19.44° C | 58% | 1001.4 hPa | 0 mm | - | - | - |
* Rain latest hour (hover to see other rain measurements)
** Current wind speed in m/s (hover to see current wind gust speed)